createdAt,value
2017-11-19T00:02:07.024Z,99457.16
2017-11-19T00:04:34.454Z,99454.58
2017-11-19T00:07:00.726Z,99447.97
2017-11-19T00:09:27.762Z,99447.25
2017-11-19T00:11:54.294Z,99448.01
2017-11-19T00:14:22.634Z,99453.54
2017-11-19T00:16:49.004Z,99446.86
2017-11-19T00:19:15.399Z,99445.91
2017-11-19T00:21:41.686Z,99451.44
2017-11-19T00:24:08.698Z,99448.95
2017-11-19T00:26:35.002Z,99452.07
2017-11-19T00:29:01.283Z,99457.98
2017-11-19T00:31:27.689Z,99443.25
2017-11-19T00:33:53.957Z,99444.05
2017-11-19T00:36:20.966Z,99449.11
2017-11-19T00:38:47.301Z,99448.84
2017-11-19T00:41:13.632Z,99437.84
2017-11-19T00:43:39.955Z,99444.43
2017-11-19T00:46:06.373Z,99440.91
2017-11-19T00:48:32.689Z,99437.78
2017-11-19T00:50:58.995Z,99438.98
2017-11-19T00:53:26.107Z,99431.50
2017-11-19T00:55:52.450Z,99434.27
2017-11-19T00:58:18.754Z,99421.57
2017-11-19T01:00:45.144Z,99426.66
2017-11-19T01:03:12.160Z,99398.66
2017-11-19T01:05:38.502Z,99412.55
2017-11-19T01:08:04.819Z,99406.41
2017-11-19T01:10:31.159Z,99412.16
2017-11-19T01:12:57.480Z,99404.34
2017-11-19T01:15:23.812Z,99399.52
2017-11-19T01:17:50.125Z,99404.20
2017-11-19T01:20:16.550Z,99408.39
2017-11-19T01:22:43.737Z,99410.84
2017-11-19T01:25:10.100Z,99395.33
2017-11-19T01:27:36.437Z,99399.20
2017-11-19T01:30:02.802Z,99392.02
2017-11-19T01:32:29.143Z,99392.38
2017-11-19T01:34:55.456Z,99389.95
2017-11-19T01:37:21.733Z,99385.19
2017-11-19T01:39:48.039Z,99385.88
2017-11-19T01:42:14.355Z,99378.59
2017-11-19T01:44:40.609Z,99382.09
2017-11-19T01:47:06.915Z,99382.84
2017-11-19T01:49:33.192Z,99378.91
2017-11-19T01:52:00.293Z,99369.59
2017-11-19T01:54:26.565Z,99368.98
2017-11-19T01:56:52.850Z,99361.02
2017-11-19T01:59:19.181Z,99362.03
2017-11-19T02:01:45.496Z,99357.17
2017-11-19T02:04:11.762Z,99352.39
2017-11-19T02:06:38.095Z,99345.33
2017-11-19T02:09:04.429Z,99349.55
2017-11-19T02:11:30.735Z,99335.17
2017-11-19T02:13:57.158Z,99338.77
2017-11-19T02:16:23.439Z,99337.96
2017-11-19T02:18:49.876Z,99336.75
2017-11-19T02:21:16.239Z,99339.73
2017-11-19T02:23:42.595Z,99341.36
2017-11-19T02:26:08.898Z,99333.73
2017-11-19T02:28:35.184Z,99330.03
2017-11-19T02:31:01.526Z,99324.28
2017-11-19T02:33:27.849Z,99331.31
2017-11-19T02:35:54.574Z,99319.75
2017-11-19T02:38:20.884Z,99320.58
2017-11-19T02:40:47.190Z,99309.13
2017-11-19T02:43:14.337Z,99313.58
2017-11-19T02:45:40.654Z,99304.96
2017-11-19T02:48:07.692Z,99300.16
2017-11-19T02:50:33.997Z,99301.67
2017-11-19T02:53:00.323Z,99300.71
2017-11-19T02:55:26.658Z,99296.38
2017-11-19T02:57:52.987Z,99295.31
2017-11-19T03:00:19.312Z,99295.97
2017-11-19T03:02:45.636Z,99299.02
2017-11-19T03:05:11.967Z,99296.70
2017-11-19T03:07:38.255Z,99289.36
2017-11-19T03:10:04.591Z,99295.68
2017-11-19T03:12:30.964Z,99294.61
2017-11-19T03:14:57.323Z,99282.59
2017-11-19T03:17:23.668Z,99285.69
2017-11-19T03:19:50.731Z,99273.88
2017-11-19T03:22:17.024Z,99286.83
2017-11-19T03:24:43.302Z,99292.70
2017-11-19T03:27:09.631Z,99286.93
2017-11-19T03:29:35.936Z,99285.47
2017-11-19T03:32:02.259Z,99289.66
2017-11-19T03:34:29.350Z,99287.83
2017-11-19T03:36:55.630Z,99288.78
2017-11-19T03:39:21.923Z,99293.47
2017-11-19T03:41:48.243Z,99290.52
2017-11-19T03:44:14.548Z,99285.00
2017-11-19T03:46:40.838Z,99296.00
2017-11-19T03:49:07.169Z,99297.55
2017-11-19T03:51:33.951Z,99290.41
2017-11-19T03:54:00.195Z,99291.80
2017-11-19T03:56:27.214Z,99296.28
2017-11-19T03:58:53.511Z,99289.84
2017-11-19T04:01:19.777Z,99288.00
2017-11-19T04:03:46.079Z,99282.02
2017-11-19T04:06:12.387Z,99284.73
2017-11-19T04:08:38.698Z,99282.33
2017-11-19T04:11:06.086Z,99288.22
2017-11-19T04:13:32.358Z,99272.85
2017-11-19T04:15:58.691Z,99275.90
2017-11-19T04:18:25.025Z,99279.05
2017-11-19T04:20:51.320Z,99269.37
2017-11-19T04:23:17.607Z,99271.92
2017-11-19T04:25:43.985Z,99262.39
2017-11-19T04:28:10.305Z,99262.69
2017-11-19T04:30:36.625Z,99264.82
2017-11-19T04:33:02.882Z,99258.00
2017-11-19T04:35:29.148Z,99262.14
2017-11-19T04:37:56.170Z,99255.69
2017-11-19T04:40:22.466Z,99258.97
2017-11-19T04:42:50.887Z,99261.34
2017-11-19T04:45:17.196Z,99253.19
2017-11-19T04:47:43.527Z,99246.06
2017-11-19T04:50:09.910Z,99236.60
2017-11-19T04:52:36.281Z,99253.43
2017-11-19T04:55:02.617Z,99258.37
2017-11-19T04:57:28.895Z,99247.90
2017-11-19T04:59:55.915Z,99249.84
2017-11-19T05:02:22.222Z,99244.94
2017-11-19T05:04:48.538Z,99243.85
2017-11-19T05:07:14.862Z,99238.86
2017-11-19T05:09:41.127Z,99247.86
2017-11-19T05:12:07.446Z,99246.48
2017-11-19T05:14:33.801Z,99238.35
2017-11-19T05:17:00.070Z,99231.09
2017-11-19T05:19:26.378Z,99234.83
2017-11-19T05:21:53.406Z,99238.14
2017-11-19T05:24:19.677Z,99228.69
2017-11-19T05:26:45.970Z,99228.78
2017-11-19T05:29:12.331Z,99239.53
2017-11-19T05:31:39.372Z,99240.98
2017-11-19T05:34:05.671Z,99239.39
2017-11-19T05:36:31.995Z,99233.39
2017-11-19T05:38:58.285Z,99237.80
2017-11-19T05:41:24.592Z,99243.02
2017-11-19T05:43:50.875Z,99241.02
2017-11-19T05:46:17.203Z,99235.58
2017-11-19T05:48:43.489Z,99241.42
2017-11-19T05:51:10.550Z,99229.56
2017-11-19T05:53:36.851Z,99238.53
2017-11-19T05:56:03.922Z,99230.33
2017-11-19T05:58:30.269Z,99222.87
2017-11-19T06:00:56.620Z,99228.39
2017-11-19T06:03:22.912Z,99229.06
2017-11-19T06:05:49.916Z,99230.36
2017-11-19T06:08:16.288Z,99210.73
2017-11-19T06:10:43.337Z,99222.27
2017-11-19T06:13:10.349Z,99216.98
2017-11-19T06:15:36.664Z,99232.71
2017-11-19T06:18:02.955Z,99227.62
2017-11-19T06:20:29.320Z,99231.95
2017-11-19T06:22:55.617Z,99223.58
2017-11-19T06:25:22.055Z,99213.93
2017-11-19T06:27:48.374Z,99229.25
2017-11-19T06:30:15.419Z,99237.42
2017-11-19T06:32:42.532Z,99233.89
2017-11-19T06:35:08.867Z,99229.72
2017-11-19T06:37:35.518Z,99231.74
2017-11-19T06:40:02.613Z,99224.91
2017-11-19T06:42:28.916Z,99220.77
2017-11-19T06:44:55.985Z,99224.53
2017-11-19T06:47:22.335Z,99221.27
2017-11-19T06:49:48.845Z,99226.89
2017-11-19T06:52:15.131Z,99221.16
2017-11-19T06:54:41.452Z,99225.00
2017-11-19T06:57:07.811Z,99234.14
2017-11-19T06:59:34.121Z,99231.19
2017-11-19T07:02:00.423Z,99217.55
2017-11-19T07:04:26.747Z,99228.64
2017-11-19T07:06:53.087Z,99230.53
2017-11-19T07:09:19.369Z,99231.74
2017-11-19T07:11:46.457Z,99224.79
2017-11-19T07:14:12.765Z,99228.22
2017-11-19T07:16:39.890Z,99225.08
2017-11-19T07:19:06.220Z,99232.84
2017-11-19T07:21:32.536Z,99223.02
2017-11-19T07:23:58.861Z,99224.08
2017-11-19T07:26:25.133Z,99221.86
2017-11-19T07:28:52.168Z,99200.27
2017-11-19T07:31:19.239Z,99219.64
2017-11-19T07:33:45.604Z,99218.81
2017-11-19T07:36:12.038Z,99214.96
2017-11-19T07:38:38.374Z,99204.71
2017-11-19T07:41:04.751Z,99209.80
2017-11-19T07:43:32.126Z,99223.66
2017-11-19T07:45:58.449Z,99216.55
2017-11-19T07:48:25.529Z,99225.88
2017-11-19T07:50:51.908Z,99224.66
2017-11-19T07:53:18.986Z,99224.73
2017-11-19T07:55:45.367Z,99215.48
2017-11-19T07:58:11.687Z,99219.15
2017-11-19T08:00:38.025Z,99225.72
2017-11-19T08:03:04.417Z,99226.60
2017-11-19T08:05:30.908Z,99225.97
2017-11-19T08:07:58.037Z,99225.16
2017-11-19T08:10:24.481Z,99201.63
2017-11-19T08:12:50.856Z,99202.86
2017-11-19T08:15:17.998Z,99202.94
2017-11-19T08:17:45.094Z,99201.98
2017-11-19T08:20:11.426Z,99211.28
2017-11-19T08:22:37.753Z,99208.26
2017-11-19T08:25:04.064Z,99212.48
2017-11-19T08:27:30.446Z,99215.66
2017-11-19T08:29:56.751Z,99212.84
2017-11-19T08:32:23.138Z,99221.02
2017-11-19T08:34:49.615Z,99208.17
2017-11-19T08:37:15.999Z,99207.80
2017-11-19T08:39:43.097Z,99207.80
2017-11-19T08:42:09.392Z,99206.52
2017-11-19T08:44:35.759Z,99211.01
2017-11-19T08:47:02.102Z,99204.27
2017-11-19T08:49:29.122Z,99200.63
2017-11-19T08:51:55.426Z,99206.03
2017-11-19T08:54:22.484Z,99200.17
2017-11-19T08:56:49.505Z,99202.64
2017-11-19T08:59:15.843Z,99210.71
2017-11-19T09:01:42.989Z,99198.27
2017-11-19T09:04:09.377Z,99218.20
2017-11-19T09:06:35.726Z,99212.20
2017-11-19T09:09:02.122Z,99210.16
2017-11-19T09:11:28.499Z,99213.30
2017-11-19T09:13:54.831Z,99197.83
2017-11-19T09:16:21.139Z,99196.91
2017-11-19T09:18:47.465Z,99212.31
2017-11-19T09:21:13.823Z,99214.66
2017-11-19T09:23:40.368Z,99206.03
2017-11-19T09:26:06.672Z,99176.78
2017-11-19T09:28:32.950Z,99214.52
2017-11-19T09:31:00.024Z,99205.14
2017-11-19T09:33:26.350Z,99206.45
2017-11-19T09:35:52.738Z,99223.72
2017-11-19T09:38:19.390Z,99210.57
2017-11-19T09:40:45.702Z,99214.02
2017-11-19T09:43:12.088Z,99215.41
2017-11-19T09:45:38.396Z,99194.05
2017-11-19T09:48:05.422Z,99202.53
2017-11-19T09:50:31.751Z,99191.80
2017-11-19T09:52:59.363Z,99213.93
2017-11-19T09:55:25.667Z,99193.01
2017-11-19T09:57:52.702Z,99158.11
2017-11-19T10:00:19.880Z,99176.78
2017-11-19T10:02:46.258Z,99212.77
2017-11-19T10:05:12.541Z,99196.75
2017-11-19T10:07:39.629Z,99192.53
2017-11-19T10:10:06.799Z,99205.05
2017-11-19T10:12:33.254Z,99193.83
2017-11-19T10:14:59.571Z,99165.21
2017-11-19T10:17:25.927Z,99185.30
2017-11-19T10:19:59.102Z,99186.88
2017-11-19T10:22:26.408Z,99157.34
2017-11-19T10:24:52.707Z,99194.78
2017-11-19T10:27:19.730Z,99184.08
2017-11-19T10:29:46.152Z,99183.51
2017-11-19T10:32:12.587Z,99177.06
2017-11-19T10:34:39.034Z,99185.27
2017-11-19T10:37:05.381Z,99193.85
2017-11-19T10:39:32.430Z,99182.98
2017-11-19T10:41:58.803Z,99158.78
2017-11-19T10:44:25.155Z,99187.73
2017-11-19T10:46:51.535Z,99186.92
2017-11-19T10:49:17.956Z,99191.89
2017-11-19T10:51:45.013Z,99194.45
2017-11-19T10:54:11.503Z,99185.91
2017-11-19T10:56:37.847Z,99184.38
2017-11-19T10:59:04.160Z,99178.20
2017-11-19T11:01:30.541Z,99179.16
2017-11-19T11:03:57.555Z,99176.50
2017-11-19T11:06:23.889Z,99190.08
2017-11-19T11:08:50.502Z,99181.53
2017-11-19T11:11:16.830Z,99179.17
2017-11-19T11:13:43.179Z,99168.85
2017-11-19T11:16:09.497Z,99175.36
2017-11-19T11:18:36.778Z,99178.77
2017-11-19T11:21:03.208Z,99170.03
2017-11-19T11:23:29.606Z,99172.45
2017-11-19T11:25:55.953Z,99168.38
2017-11-19T11:28:22.362Z,99166.94
2017-11-19T11:30:48.723Z,99169.27
2017-11-19T11:33:15.080Z,99146.48
2017-11-19T11:35:41.453Z,99180.80
2017-11-19T11:38:07.813Z,99170.25
2017-11-19T11:40:34.166Z,99163.47
2017-11-19T11:43:00.575Z,99164.45
2017-11-19T11:45:26.913Z,99173.69
2017-11-19T11:47:53.257Z,99174.48
2017-11-19T11:50:19.671Z,99164.80
2017-11-19T11:52:46.024Z,99177.42
2017-11-19T11:55:12.422Z,99157.50
2017-11-19T11:57:38.730Z,99138.42
2017-11-19T12:00:05.113Z,99157.20
2017-11-19T12:02:31.448Z,99167.68
2017-11-19T12:04:57.790Z,99159.20
2017-11-19T12:07:24.121Z,99153.34
2017-11-19T12:09:50.537Z,99142.20
2017-11-19T12:12:16.889Z,99140.02
2017-11-19T12:14:43.301Z,99143.77
2017-11-19T12:17:09.684Z,99157.05
2017-11-19T12:19:35.997Z,99167.12
2017-11-19T12:22:02.412Z,99143.91
2017-11-19T12:24:28.825Z,99141.13
2017-11-19T12:26:55.147Z,99136.16
2017-11-19T12:29:21.581Z,99111.92
2017-11-19T12:31:47.944Z,99097.48
2017-11-19T12:34:14.345Z,99110.39
2017-11-19T12:36:40.644Z,99114.25
2017-11-19T12:39:07.007Z,99116.75
2017-11-19T12:41:33.373Z,99113.56
2017-11-19T12:43:59.725Z,99122.25
2017-11-19T12:46:26.832Z,99069.09
2017-11-19T12:48:53.196Z,99115.23
2017-11-19T12:51:19.561Z,99123.56
2017-11-19T12:53:45.886Z,99137.48
2017-11-19T12:56:12.178Z,99120.09
2017-11-19T12:58:38.549Z,99101.31
2017-11-19T13:01:04.966Z,99104.81
2017-11-19T13:03:32.020Z,99113.02
2017-11-19T13:05:58.386Z,99123.02
2017-11-19T13:08:24.833Z,99131.33
2017-11-19T13:10:51.189Z,99124.16
2017-11-19T13:13:17.604Z,99102.75
2017-11-19T13:15:43.887Z,99124.69
2017-11-19T13:18:10.253Z,99119.58
2017-11-19T13:20:36.574Z,99125.20
2017-11-19T13:23:02.912Z,99115.48
2017-11-19T13:25:29.620Z,99115.06
2017-11-19T13:27:56.009Z,99109.95
2017-11-19T13:30:22.458Z,99111.68
2017-11-19T13:32:49.628Z,99114.42
2017-11-19T13:35:16.871Z,99132.55
2017-11-19T13:37:43.993Z,99141.64
2017-11-19T13:40:10.391Z,99120.85
2017-11-19T13:42:36.778Z,99137.98
2017-11-19T13:45:03.182Z,99150.55
2017-11-19T13:47:29.575Z,99141.66
2017-11-19T13:49:55.916Z,99149.14
2017-11-19T13:52:22.353Z,99152.41
2017-11-19T13:54:48.709Z,99148.70
2017-11-19T13:57:15.117Z,99151.61
2017-11-19T13:59:41.432Z,99151.53
2017-11-19T14:02:07.915Z,99156.97
2017-11-19T14:04:34.294Z,99166.03
2017-11-19T14:07:00.746Z,99159.25
2017-11-19T14:09:28.111Z,99159.62
2017-11-19T14:11:54.462Z,99165.75
2017-11-19T14:14:20.828Z,99163.37
2017-11-19T14:16:47.923Z,99146.05
2017-11-19T14:19:14.291Z,99166.02
2017-11-19T14:21:40.671Z,99152.59
2017-11-19T14:24:07.016Z,99178.47
2017-11-19T14:26:33.335Z,99168.11
2017-11-19T14:28:59.681Z,99162.58
2017-11-19T14:31:26.024Z,99168.63
2017-11-19T14:33:52.510Z,99164.36
2017-11-19T14:36:19.623Z,99159.57
2017-11-19T14:38:45.998Z,99154.13
2017-11-19T14:41:13.098Z,99152.03
2017-11-19T14:43:39.501Z,99170.56
2017-11-19T14:46:05.861Z,99174.71
2017-11-19T14:48:32.920Z,99178.78
2017-11-19T14:51:00.006Z,99170.61
2017-11-19T14:53:27.124Z,99165.03
2017-11-19T14:55:53.446Z,99167.59
2017-11-19T14:58:20.575Z,99178.08
2017-11-19T15:00:46.962Z,99169.45
2017-11-19T15:03:13.355Z,99179.25
2017-11-19T15:05:39.729Z,99172.94
2017-11-19T15:08:06.831Z,99168.94
2017-11-19T15:10:33.301Z,99176.89
2017-11-19T15:12:59.772Z,99177.78
2017-11-19T15:15:26.586Z,99186.67
2017-11-19T15:17:52.964Z,99193.30
2017-11-19T15:20:19.340Z,99165.17
2017-11-19T15:22:45.683Z,99169.39
2017-11-19T15:25:12.795Z,99181.59
2017-11-19T15:27:39.185Z,99176.25
2017-11-19T15:30:05.540Z,99186.42
2017-11-19T15:32:31.950Z,99170.39
2017-11-19T15:34:58.394Z,99183.09
2017-11-19T15:37:24.855Z,99182.94
2017-11-19T15:39:51.310Z,99177.74
2017-11-19T15:42:18.990Z,99165.66
2017-11-19T15:44:45.412Z,99186.58
2017-11-19T15:47:11.822Z,99192.94
2017-11-19T15:49:38.192Z,99201.98
2017-11-19T15:52:04.504Z,99204.97
2017-11-19T15:54:30.848Z,99200.78
2017-11-19T15:56:57.249Z,99210.76
2017-11-19T15:59:23.648Z,99202.19
2017-11-19T16:01:49.973Z,99199.90
2017-11-19T16:04:16.380Z,99196.56
2017-11-19T16:06:42.821Z,99209.77
2017-11-19T16:09:10.042Z,99229.22
2017-11-19T16:11:36.428Z,99208.67
2017-11-19T16:14:09.658Z,99206.64
2017-11-19T16:16:35.974Z,99208.48
2017-11-19T16:19:02.478Z,99216.51
2017-11-19T16:21:28.814Z,99211.83
2017-11-19T16:23:55.156Z,99209.50
2017-11-19T16:26:21.732Z,99198.63
2017-11-19T16:28:48.357Z,99190.73
2017-11-19T16:31:14.756Z,99194.78
2017-11-19T16:33:41.107Z,99194.05
2017-11-19T16:36:07.510Z,99163.73
2017-11-19T16:38:33.872Z,99195.56
2017-11-19T16:41:00.197Z,99201.28
2017-11-19T16:43:29.842Z,99199.28
2017-11-19T16:45:56.445Z,99172.53
2017-11-19T16:48:22.803Z,99196.09
2017-11-19T16:50:49.176Z,99208.53
2017-11-19T16:53:15.537Z,99198.17
2017-11-19T16:55:41.947Z,99216.23
2017-11-19T16:58:08.414Z,99211.44
2017-11-19T17:00:34.755Z,99201.92
2017-11-19T17:03:01.141Z,99220.17
2017-11-19T17:05:28.209Z,99213.52
2017-11-19T17:07:54.553Z,99224.44
2017-11-19T17:10:21.028Z,99205.66
2017-11-19T17:12:47.388Z,99223.72
2017-11-19T17:15:14.500Z,99227.87
2017-11-19T17:17:40.782Z,99216.41
2017-11-19T17:20:07.157Z,99246.86
2017-11-19T17:22:33.561Z,99227.94
2017-11-19T17:24:59.967Z,99229.00
2017-11-19T17:27:26.349Z,99242.44
2017-11-19T17:29:52.687Z,99239.97
2017-11-19T17:32:19.122Z,99243.53
2017-11-19T17:34:45.483Z,99214.88
2017-11-19T17:37:12.642Z,99220.14
2017-11-19T17:39:39.059Z,99220.83
2017-11-19T17:42:05.416Z,99213.18
2017-11-19T17:44:32.580Z,99219.59
2017-11-19T17:46:58.953Z,99208.83
2017-11-19T17:49:27.277Z,99224.60
2017-11-19T17:51:54.429Z,99209.14
2017-11-19T17:54:20.756Z,99219.55
2017-11-19T17:56:47.167Z,99218.86
2017-11-19T17:59:14.596Z,99215.98
2017-11-19T18:01:40.898Z,99206.61
2017-11-19T18:04:07.353Z,99220.34
2017-11-19T18:06:33.785Z,99233.23
2017-11-19T18:09:00.099Z,99221.12
2017-11-19T18:11:26.594Z,99219.42
2017-11-19T18:13:53.798Z,99235.17
2017-11-19T18:16:20.179Z,99221.53
2017-11-19T18:18:47.365Z,99234.90
2017-11-19T18:21:13.770Z,99223.72
2017-11-19T18:23:40.856Z,99237.56
2017-11-19T18:26:08.241Z,99234.19
2017-11-19T18:28:34.719Z,99238.67
2017-11-19T18:31:01.924Z,99232.08
2017-11-19T18:33:28.529Z,99240.13
2017-11-19T18:35:54.947Z,99224.52
2017-11-19T18:38:21.462Z,99265.67
2017-11-19T18:40:48.814Z,99241.88
2017-11-19T18:43:15.271Z,99252.14
2017-11-19T18:45:41.780Z,99253.63
2017-11-19T18:48:08.190Z,99257.45
2017-11-19T18:50:35.288Z,99245.41
2017-11-19T18:53:01.664Z,99251.03
2017-11-19T18:55:28.024Z,99253.30
2017-11-19T18:57:54.728Z,99250.86
2017-11-19T19:00:21.925Z,99264.52
2017-11-19T19:02:48.292Z,99266.38
2017-11-19T19:05:14.788Z,99261.13
2017-11-19T19:07:41.675Z,99264.03
2017-11-19T19:10:08.387Z,99275.08
2017-11-19T19:12:35.780Z,99265.44
2017-11-19T19:15:02.304Z,99268.55
2017-11-19T19:17:28.908Z,99286.39
2017-11-19T19:19:57.276Z,99283.02
2017-11-19T19:22:23.776Z,99275.84
2017-11-19T19:24:50.893Z,99269.36
2017-11-19T19:27:17.585Z,99297.42
2017-11-19T19:29:44.942Z,99279.17
2017-11-19T19:32:11.417Z,99280.47
2017-11-19T19:34:38.361Z,99280.97
2017-11-19T19:37:05.676Z,99283.59
2017-11-19T19:39:32.114Z,99282.52
2017-11-19T19:41:59.831Z,99295.11
2017-11-19T19:44:28.476Z,99302.28
2017-11-19T19:46:55.968Z,99305.11
2017-11-19T19:49:25.249Z,99323.70
2017-11-19T19:51:52.785Z,99326.58
2017-11-19T19:54:19.477Z,99315.45
2017-11-19T19:56:45.993Z,99308.77
2017-11-19T19:59:12.435Z,99300.41
2017-11-19T20:01:38.863Z,99304.67
2017-11-19T20:04:05.351Z,99332.05
2017-11-19T20:06:32.860Z,99336.48
2017-11-19T20:08:59.318Z,99353.98
2017-11-19T20:11:25.792Z,99347.44
2017-11-19T20:13:52.502Z,99349.96
2017-11-19T20:16:19.113Z,99357.66
2017-11-19T20:18:45.927Z,99361.47
2017-11-19T20:21:12.363Z,99350.45
2017-11-19T20:23:39.559Z,99366.78
2017-11-19T20:26:06.062Z,99371.23
2017-11-19T20:28:32.846Z,99368.23
2017-11-19T20:30:59.195Z,99360.67
2017-11-19T20:33:25.824Z,99364.50
2017-11-19T20:35:52.167Z,99380.67
2017-11-19T20:38:18.668Z,99361.78
2017-11-19T20:40:45.157Z,99371.95
2017-11-19T20:43:12.387Z,99377.33
2017-11-19T20:45:38.939Z,99378.97
2017-11-19T20:48:06.228Z,99401.85
2017-11-19T20:50:32.892Z,99378.50
2017-11-19T20:52:59.884Z,99371.59
2017-11-19T20:55:26.465Z,99390.09
2017-11-19T20:57:55.038Z,99367.31
2017-11-19T21:00:21.513Z,99388.17
2017-11-19T21:02:48.055Z,99380.88
2017-11-19T21:05:14.692Z,99379.93
2017-11-19T21:07:41.843Z,99375.37
2017-11-19T21:10:08.275Z,99386.84
2017-11-19T21:12:34.633Z,99368.37
2017-11-19T21:15:01.809Z,99394.44
2017-11-19T21:17:29.798Z,99398.15
2017-11-19T21:19:58.105Z,99396.74
2017-11-19T21:22:24.620Z,99392.92
2017-11-19T21:24:51.021Z,99412.34
2017-11-19T21:27:18.163Z,99389.66
2017-11-19T21:29:44.773Z,99413.23
2017-11-19T21:32:11.231Z,99409.14
2017-11-19T21:34:38.502Z,99435.86
2017-11-19T21:37:04.806Z,99432.55
2017-11-19T21:39:31.923Z,99424.83
2017-11-19T21:41:59.212Z,99433.47
2017-11-19T21:44:26.316Z,99443.50
2017-11-19T21:46:53.802Z,99441.10
2017-11-19T21:49:20.243Z,99435.55
2017-11-19T21:51:46.723Z,99456.64
2017-11-19T21:54:13.089Z,99433.54
2017-11-19T21:56:39.460Z,99444.81
2017-11-19T21:59:06.531Z,99463.12
2017-11-19T22:01:32.895Z,99438.23
2017-11-19T22:03:59.235Z,99441.69
2017-11-19T22:06:25.575Z,99461.66
2017-11-19T22:08:51.938Z,99474.39
2017-11-19T22:11:18.299Z,99488.95
2017-11-19T22:13:44.599Z,99478.69
2017-11-19T22:16:11.695Z,99485.72
2017-11-19T22:18:38.040Z,99489.23
2017-11-19T22:21:04.408Z,99517.70
2017-11-19T22:23:31.534Z,99512.32
2017-11-19T22:25:57.969Z,99512.99
2017-11-19T22:28:24.646Z,99516.22
2017-11-19T22:30:50.982Z,99505.03
2017-11-19T22:33:17.364Z,99508.25
2017-11-19T22:35:43.764Z,99518.62
2017-11-19T22:38:10.087Z,99517.39
2017-11-19T22:40:36.391Z,99519.80
2017-11-19T22:43:03.487Z,99530.07
2017-11-19T22:45:29.864Z,99525.20
2017-11-19T22:47:56.922Z,99548.94
2017-11-19T22:50:23.928Z,99527.93
2017-11-19T22:52:50.263Z,99458.73
2017-11-19T22:55:16.597Z,99515.13
2017-11-19T22:57:42.929Z,99523.17
2017-11-19T23:00:09.256Z,99511.69
2017-11-19T23:02:35.641Z,99519.60
2017-11-19T23:05:02.654Z,99525.97
2017-11-19T23:07:29.754Z,99524.69
2017-11-19T23:09:56.031Z,99525.81
2017-11-19T23:12:23.143Z,99542.09
2017-11-19T23:14:49.534Z,99547.70
2017-11-19T23:17:16.612Z,99563.10
2017-11-19T23:19:43.014Z,99553.63
2017-11-19T23:22:10.030Z,99542.48
2017-11-19T23:24:36.420Z,99540.08
2017-11-19T23:27:02.733Z,99546.30
2017-11-19T23:29:29.820Z,99552.59
2017-11-19T23:31:56.168Z,99558.86
2017-11-19T23:34:22.545Z,99577.14
2017-11-19T23:36:49.696Z,99552.31
2017-11-19T23:39:16.727Z,99562.05
2017-11-19T23:41:43.062Z,99572.34
2017-11-19T23:44:10.184Z,99579.39
2017-11-19T23:46:36.520Z,99569.95
2017-11-19T23:49:02.825Z,99579.91
2017-11-19T23:51:29.209Z,99574.34
2017-11-19T23:53:56.251Z,99583.22
2017-11-19T23:56:22.556Z,99589.41
2017-11-19T23:58:48.917Z,99591.30
